sensor_id;sensor_type;location;lat;lon;timestamp;P1;durP1;ratioP1;P2;durP2;ratioP2
76865;SDS011;66647;52.124;5.416;2024-02-28T00:07:08;19.00;;;7.50;;
76865;SDS011;66647;52.124;5.416;2024-02-28T00:09:36;21.83;;;7.28;;
76865;SDS011;66647;52.124;5.416;2024-02-28T00:12:02;21.92;;;7.05;;
76865;SDS011;66647;52.124;5.416;2024-02-28T00:17:45;24.17;;;8.05;;
76865;SDS011;66647;52.124;5.416;2024-02-28T00:20:11;21.90;;;9.65;;
76865;SDS011;66647;52.124;5.416;2024-02-28T00:22:39;23.95;;;8.18;;
76865;SDS011;66647;52.124;5.416;2024-02-28T00:28:07;24.42;;;9.57;;
76865;SDS011;66647;52.124;5.416;2024-02-28T00:30:35;18.73;;;6.93;;
76865;SDS011;66647;52.124;5.416;2024-02-28T00:33:01;24.92;;;8.75;;
76865;SDS011;66647;52.124;5.416;2024-02-28T00:35:31;25.73;;;9.45;;
76865;SDS011;66647;52.124;5.416;2024-02-28T00:38:04;25.63;;;7.53;;
76865;SDS011;66647;52.124;5.416;2024-02-28T00:40:37;21.50;;;7.60;;
76865;SDS011;66647;52.124;5.416;2024-02-28T00:43:06;26.33;;;8.77;;
76865;SDS011;66647;52.124;5.416;2024-02-28T00:46:07;21.02;;;6.35;;
76865;SDS011;66647;52.124;5.416;2024-02-28T00:48:38;23.75;;;8.88;;
76865;SDS011;66647;52.124;5.416;2024-02-28T01:04:31;18.55;;;6.68;;
76865;SDS011;66647;52.124;5.416;2024-02-28T01:06:47;26.52;;;7.85;;
76865;SDS011;66647;52.124;5.416;2024-02-28T01:09:39;24.02;;;8.80;;
76865;SDS011;66647;52.124;5.416;2024-02-28T01:15:40;21.65;;;6.25;;
76865;SDS011;66647;52.124;5.416;2024-02-28T01:18:08;23.08;;;8.07;;
76865;SDS011;66647;52.124;5.416;2024-02-28T01:20:36;22.30;;;8.27;;
76865;SDS011;66647;52.124;5.416;2024-02-28T01:23:05;22.08;;;7.22;;
76865;SDS011;66647;52.124;5.416;2024-02-28T01:25:31;24.13;;;8.15;;
76865;SDS011;66647;52.124;5.416;2024-02-28T01:31:02;21.80;;;7.53;;
76865;SDS011;66647;52.124;5.416;2024-02-28T01:33:41;23.85;;;9.65;;
76865;SDS011;66647;52.124;5.416;2024-02-28T01:36:14;23.45;;;7.13;;
76865;SDS011;66647;52.124;5.416;2024-02-28T01:38:47;24.58;;;6.38;;
76865;SDS011;66647;52.124;5.416;2024-02-28T01:41:14;25.67;;;8.15;;
76865;SDS011;66647;52.124;5.416;2024-02-28T01:43:40;23.98;;;8.30;;
76865;SDS011;66647;52.124;5.416;2024-02-28T01:46:14;18.85;;;6.72;;
76865;SDS011;66647;52.124;5.416;2024-02-28T01:48:49;25.40;;;7.88;;
76865;SDS011;66647;52.124;5.416;2024-02-28T01:51:19;23.98;;;7.50;;
76865;SDS011;66647;52.124;5.416;2024-02-28T01:54:49;31.85;;;9.50;;
76865;SDS011;66647;52.124;5.416;2024-02-28T01:57:33;22.45;;;7.70;;
76865;SDS011;66647;52.124;5.416;2024-02-28T02:00:04;25.75;;;7.97;;
76865;SDS011;66647;52.124;5.416;2024-02-28T02:02:34;32.92;;;7.88;;
76865;SDS011;66647;52.124;5.416;2024-02-28T02:05:01;26.77;;;8.50;;
76865;SDS011;66647;52.124;5.416;2024-02-28T02:07:28;28.58;;;8.23;;
76865;SDS011;66647;52.124;5.416;2024-02-28T02:09:56;34.80;;;5.85;;
76865;SDS011;66647;52.124;5.416;2024-02-28T02:12:48;16.38;;;6.60;;
76865;SDS011;66647;52.124;5.416;2024-02-28T02:15:24;27.50;;;6.32;;
76865;SDS011;66647;52.124;5.416;2024-02-28T02:20:46;20.75;;;7.28;;
76865;SDS011;66647;52.124;5.416;2024-02-28T02:23:17;25.90;;;6.55;;
76865;SDS011;66647;52.124;5.416;2024-02-28T02:25:47;17.73;;;7.97;;
76865;SDS011;66647;52.124;5.416;2024-02-28T02:28:15;16.38;;;6.82;;
76865;SDS011;66647;52.124;5.416;2024-02-28T02:30:42;22.70;;;7.20;;
76865;SDS011;66647;52.124;5.416;2024-02-28T02:33:09;16.60;;;6.65;;
76865;SDS011;66647;52.124;5.416;2024-02-28T02:35:36;30.55;;;6.20;;
76865;SDS011;66647;52.124;5.416;2024-02-28T02:38:03;21.05;;;5.65;;
76865;SDS011;66647;52.124;5.416;2024-02-28T02:40:30;17.27;;;6.32;;
76865;SDS011;66647;52.124;5.416;2024-02-28T02:42:57;15.95;;;5.43;;
76865;SDS011;66647;52.124;5.416;2024-02-28T02:45:27;19.02;;;6.63;;
76865;SDS011;66647;52.124;5.416;2024-02-28T02:48:16;19.48;;;8.25;;
76865;SDS011;66647;52.124;5.416;2024-02-28T02:53:45;17.73;;;5.47;;
76865;SDS011;66647;52.124;5.416;2024-02-28T02:56:12;18.23;;;5.88;;
76865;SDS011;66647;52.124;5.416;2024-02-28T02:58:39;17.88;;;7.53;;
76865;SDS011;66647;52.124;5.416;2024-02-28T03:01:14;26.38;;;7.47;;
76865;SDS011;66647;52.124;5.416;2024-02-28T03:03:41;26.60;;;7.95;;
76865;SDS011;66647;52.124;5.416;2024-02-28T03:06:10;14.63;;;5.15;;
76865;SDS011;66647;52.124;5.416;2024-02-28T03:08:40;37.28;;;8.30;;
76865;SDS011;66647;52.124;5.416;2024-02-28T03:11:12;17.40;;;6.82;;
76865;SDS011;66647;52.124;5.416;2024-02-28T03:13:43;16.73;;;7.00;;
76865;SDS011;66647;52.124;5.416;2024-02-28T03:19:34;19.38;;;7.38;;
76865;SDS011;66647;52.124;5.416;2024-02-28T03:25:00;15.30;;;5.10;;
76865;SDS011;66647;52.124;5.416;2024-02-28T03:27:31;18.48;;;5.68;;
76865;SDS011;66647;52.124;5.416;2024-02-28T03:30:01;16.10;;;5.75;;
76865;SDS011;66647;52.124;5.416;2024-02-28T03:32:28;16.88;;;8.00;;
76865;SDS011;66647;52.124;5.416;2024-02-28T03:35:40;20.83;;;6.80;;
76865;SDS011;66647;52.124;5.416;2024-02-28T03:38:09;16.30;;;6.40;;
76865;SDS011;66647;52.124;5.416;2024-02-28T03:40:58;20.23;;;5.32;;
76865;SDS011;66647;52.124;5.416;2024-02-28T03:43:25;24.02;;;5.63;;
76865;SDS011;66647;52.124;5.416;2024-02-28T03:45:52;32.75;;;7.10;;
76865;SDS011;66647;52.124;5.416;2024-02-28T03:48:19;17.77;;;7.07;;
76865;SDS011;66647;52.124;5.416;2024-02-28T03:50:46;24.15;;;6.07;;
76865;SDS011;66647;52.124;5.416;2024-02-28T03:53:52;16.83;;;5.20;;
76865;SDS011;66647;52.124;5.416;2024-02-28T03:56:22;16.65;;;5.80;;
76865;SDS011;66647;52.124;5.416;2024-02-28T03:59:03;19.55;;;5.93;;
76865;SDS011;66647;52.124;5.416;2024-02-28T04:01:44;18.35;;;7.28;;
76865;SDS011;66647;52.124;5.416;2024-02-28T04:04:46;17.05;;;6.15;;
76865;SDS011;66647;52.124;5.416;2024-02-28T04:11:07;16.35;;;5.63;;
76865;SDS011;66647;52.124;5.416;2024-02-28T04:13:37;13.07;;;5.38;;
76865;SDS011;66647;52.124;5.416;2024-02-28T04:16:07;18.33;;;7.57;;
76865;SDS011;66647;52.124;5.416;2024-02-28T04:18:34;18.30;;;7.18;;
76865;SDS011;66647;52.124;5.416;2024-02-28T04:21:06;16.48;;;7.05;;
76865;SDS011;66647;52.124;5.416;2024-02-28T04:27:12;13.27;;;4.93;;
76865;SDS011;66647;52.124;5.416;2024-02-28T04:29:42;15.43;;;5.60;;
76865;SDS011;66647;52.124;5.416;2024-02-28T04:32:08;14.50;;;5.20;;
76865;SDS011;66647;52.124;5.416;2024-02-28T04:34:36;15.68;;;5.95;;
76865;SDS011;66647;52.124;5.416;2024-02-28T04:37:03;17.98;;;5.60;;
76865;SDS011;66647;52.124;5.416;2024-02-28T04:39:33;15.40;;;5.18;;
76865;SDS011;66647;52.124;5.416;2024-02-28T04:42:20;14.98;;;5.95;;
76865;SDS011;66647;52.124;5.416;2024-02-28T05:04:39;11.68;;;4.85;;
76865;SDS011;66647;52.124;5.416;2024-02-28T05:07:27;16.45;;;6.55;;
76865;SDS011;66647;52.124;5.416;2024-02-28T05:09:54;13.55;;;5.28;;
76865;SDS011;66647;52.124;5.416;2024-02-28T05:24:09;15.95;;;4.72;;
76865;SDS011;66647;52.124;5.416;2024-02-28T05:34:56;10.27;;;4.03;;
76865;SDS011;66647;52.124;5.416;2024-02-28T06:01:19;14.40;;;4.55;;
76865;SDS011;66647;52.124;5.416;2024-02-28T06:31:16;11.65;;;5.03;;
76865;SDS011;66647;52.124;5.416;2024-02-28T06:33:48;14.35;;;7.15;;
76865;SDS011;66647;52.124;5.416;2024-02-28T06:37:22;12.98;;;4.88;;
76865;SDS011;66647;52.124;5.416;2024-02-28T07:00:14;11.75;;;4.75;;
76865;SDS011;66647;52.124;5.416;2024-02-28T07:04:20;9.45;;;4.68;;
76865;SDS011;66647;52.124;5.416;2024-02-28T07:06:50;12.40;;;5.43;;
76865;SDS011;66647;52.124;5.416;2024-02-28T07:12:27;14.23;;;6.03;;
76865;SDS011;66647;52.124;5.416;2024-02-28T07:14:54;15.32;;;6.18;;
76865;SDS011;66647;52.124;5.416;2024-02-28T07:17:48;15.05;;;7.78;;
76865;SDS011;66647;52.124;5.416;2024-02-28T07:58:46;13.57;;;6.50;;
76865;SDS011;66647;52.124;5.416;2024-02-28T08:24:19;11.02;;;5.63;;
76865;SDS011;66647;52.124;5.416;2024-02-28T08:31:29;11.70;;;5.93;;
76865;SDS011;66647;52.124;5.416;2024-02-28T08:33:56;16.58;;;6.10;;
76865;SDS011;66647;52.124;5.416;2024-02-28T08:36:26;15.93;;;7.90;;
76865;SDS011;66647;52.124;5.416;2024-02-28T08:39:02;24.13;;;9.13;;
76865;SDS011;66647;52.124;5.416;2024-02-28T08:44:37;18.45;;;8.30;;
76865;SDS011;66647;52.124;5.416;2024-02-28T08:47:24;16.40;;;9.50;;
76865;SDS011;66647;52.124;5.416;2024-02-28T08:49:57;60.92;;;17.60;;
76865;SDS011;66647;52.124;5.416;2024-02-28T08:56:37;48.97;;;17.38;;
76865;SDS011;66647;52.124;5.416;2024-02-28T08:59:18;34.33;;;14.20;;
76865;SDS011;66647;52.124;5.416;2024-02-28T09:02:01;23.08;;;10.82;;
76865;SDS011;66647;52.124;5.416;2024-02-28T09:04:29;17.63;;;8.63;;
76865;SDS011;66647;52.124;5.416;2024-02-28T09:10:14;17.15;;;9.50;;
76865;SDS011;66647;52.124;5.416;2024-02-28T09:15:34;16.60;;;10.15;;
76865;SDS011;66647;52.124;5.416;2024-02-28T09:24:13;20.85;;;9.05;;
76865;SDS011;66647;52.124;5.416;2024-02-28T09:26:44;20.88;;;10.85;;
76865;SDS011;66647;52.124;5.416;2024-02-28T09:29:45;15.88;;;9.43;;
76865;SDS011;66647;52.124;5.416;2024-02-28T09:32:12;20.45;;;8.38;;
76865;SDS011;66647;52.124;5.416;2024-02-28T09:34:41;18.70;;;9.75;;
76865;SDS011;66647;52.124;5.416;2024-02-28T09:40:26;18.10;;;11.25;;
76865;SDS011;66647;52.124;5.416;2024-02-28T09:45:43;19.75;;;9.20;;
76865;SDS011;66647;52.124;5.416;2024-02-28T09:48:13;18.88;;;11.38;;
76865;SDS011;66647;52.124;5.416;2024-02-28T09:50:44;18.70;;;9.80;;
76865;SDS011;66647;52.124;5.416;2024-02-28T09:53:12;17.42;;;10.35;;
76865;SDS011;66647;52.124;5.416;2024-02-28T10:13:12;17.35;;;10.13;;
76865;SDS011;66647;52.124;5.416;2024-02-28T10:15:58;19.23;;;10.48;;
76865;SDS011;66647;52.124;5.416;2024-02-28T10:22:52;15.35;;;7.65;;
76865;SDS011;66647;52.124;5.416;2024-02-28T10:25:19;18.55;;;10.20;;
76865;SDS011;66647;52.124;5.416;2024-02-28T10:32:56;21.73;;;10.52;;
76865;SDS011;66647;52.124;5.416;2024-02-28T10:42:14;15.52;;;9.07;;
76865;SDS011;66647;52.124;5.416;2024-02-28T11:22:20;15.68;;;8.57;;
76865;SDS011;66647;52.124;5.416;2024-02-28T11:29:26;17.60;;;10.45;;
76865;SDS011;66647;52.124;5.416;2024-02-28T11:31:55;19.23;;;11.68;;
76865;SDS011;66647;52.124;5.416;2024-02-28T11:34:23;18.30;;;10.68;;
76865;SDS011;66647;52.124;5.416;2024-02-28T11:38:17;17.55;;;10.85;;
76865;SDS011;66647;52.124;5.416;2024-02-28T11:40:49;18.67;;;11.10;;
76865;SDS011;66647;52.124;5.416;2024-02-28T11:43:17;19.60;;;10.88;;
76865;SDS011;66647;52.124;5.416;2024-02-28T12:06:04;19.80;;;10.93;;
76865;SDS011;66647;52.124;5.416;2024-02-28T12:13:46;19.88;;;8.02;;
76865;SDS011;66647;52.124;5.416;2024-02-28T12:46:55;18.55;;;8.95;;
76865;SDS011;66647;52.124;5.416;2024-02-28T12:56:48;20.20;;;8.05;;
76865;SDS011;66647;52.124;5.416;2024-02-28T13:08:21;17.30;;;7.45;;
76865;SDS011;66647;52.124;5.416;2024-02-28T13:10:59;18.42;;;9.55;;
76865;SDS011;66647;52.124;5.416;2024-02-28T13:13:27;18.10;;;9.60;;
76865;SDS011;66647;52.124;5.416;2024-02-28T13:15:53;16.88;;;9.68;;
76865;SDS011;66647;52.124;5.416;2024-02-28T13:18:22;16.73;;;9.68;;
76865;SDS011;66647;52.124;5.416;2024-02-28T13:20:49;17.50;;;9.70;;
76865;SDS011;66647;52.124;5.416;2024-02-28T13:23:16;17.48;;;7.43;;
76865;SDS011;66647;52.124;5.416;2024-02-28T13:25:43;19.35;;;9.65;;
76865;SDS011;66647;52.124;5.416;2024-02-28T13:28:12;16.02;;;8.77;;
76865;SDS011;66647;52.124;5.416;2024-02-28T13:30:47;25.10;;;8.38;;
76865;SDS011;66647;52.124;5.416;2024-02-28T13:33:16;18.38;;;7.57;;
76865;SDS011;66647;52.124;5.416;2024-02-28T13:36:08;17.60;;;10.35;;
76865;SDS011;66647;52.124;5.416;2024-02-28T13:42:42;18.42;;;7.55;;
76865;SDS011;66647;52.124;5.416;2024-02-28T13:49:00;19.40;;;10.80;;
76865;SDS011;66647;52.124;5.416;2024-02-28T14:17:47;18.63;;;9.25;;
76865;SDS011;66647;52.124;5.416;2024-02-28T14:29:42;16.02;;;6.85;;
76865;SDS011;66647;52.124;5.416;2024-02-28T14:32:14;16.35;;;8.73;;
76865;SDS011;66647;52.124;5.416;2024-02-28T14:39:48;16.13;;;8.40;;
76865;SDS011;66647;52.124;5.416;2024-02-28T14:42:28;15.43;;;6.65;;
76865;SDS011;66647;52.124;5.416;2024-02-28T14:44:55;17.60;;;8.95;;
76865;SDS011;66647;52.124;5.416;2024-02-28T14:47:45;16.98;;;8.55;;
76865;SDS011;66647;52.124;5.416;2024-02-28T14:50:57;20.77;;;9.63;;
76865;SDS011;66647;52.124;5.416;2024-02-28T14:53:41;17.25;;;7.75;;
76865;SDS011;66647;52.124;5.416;2024-02-28T14:56:08;16.52;;;8.23;;
76865;SDS011;66647;52.124;5.416;2024-02-28T15:01:55;14.32;;;5.90;;
76865;SDS011;66647;52.124;5.416;2024-02-28T15:04:25;15.30;;;6.03;;
76865;SDS011;66647;52.124;5.416;2024-02-28T15:06:58;16.30;;;6.53;;
76865;SDS011;66647;52.124;5.416;2024-02-28T15:09:27;15.65;;;7.32;;
76865;SDS011;66647;52.124;5.416;2024-02-28T15:12:05;14.55;;;5.72;;
76865;SDS011;66647;52.124;5.416;2024-02-28T15:15:10;12.57;;;6.47;;
76865;SDS011;66647;52.124;5.416;2024-02-28T15:17:37;13.32;;;5.43;;
76865;SDS011;66647;52.124;5.416;2024-02-28T15:30:20;15.45;;;7.30;;
76865;SDS011;66647;52.124;5.416;2024-02-28T15:36:22;14.32;;;6.28;;
76865;SDS011;66647;52.124;5.416;2024-02-28T15:39:21;14.80;;;6.32;;
76865;SDS011;66647;52.124;5.416;2024-02-28T15:41:48;12.50;;;5.13;;
76865;SDS011;66647;52.124;5.416;2024-02-28T15:44:15;14.05;;;7.35;;
76865;SDS011;66647;52.124;5.416;2024-02-28T15:46:47;15.10;;;6.97;;
76865;SDS011;66647;52.124;5.416;2024-02-28T15:53:19;14.60;;;5.38;;
76865;SDS011;66647;52.124;5.416;2024-02-28T15:55:46;15.07;;;5.55;;
76865;SDS011;66647;52.124;5.416;2024-02-28T15:58:32;16.90;;;5.75;;
76865;SDS011;66647;52.124;5.416;2024-02-28T16:00:59;13.10;;;7.22;;
76865;SDS011;66647;52.124;5.416;2024-02-28T16:03:26;16.50;;;6.95;;
76865;SDS011;66647;52.124;5.416;2024-02-28T16:05:53;14.52;;;5.25;;
76865;SDS011;66647;52.124;5.416;2024-02-28T16:08:23;13.15;;;5.30;;
76865;SDS011;66647;52.124;5.416;2024-02-28T16:13:58;14.75;;;7.75;;
76865;SDS011;66647;52.124;5.416;2024-02-28T16:16:25;15.88;;;7.28;;
76865;SDS011;66647;52.124;5.416;2024-02-28T16:22:17;13.45;;;5.50;;
76865;SDS011;66647;52.124;5.416;2024-02-28T16:27:33;14.15;;;6.15;;
76865;SDS011;66647;52.124;5.416;2024-02-28T16:30:01;14.50;;;5.32;;
76865;SDS011;66647;52.124;5.416;2024-02-28T16:35:46;15.05;;;5.40;;
76865;SDS011;66647;52.124;5.416;2024-02-28T16:38:30;17.02;;;6.53;;
76865;SDS011;66647;52.124;5.416;2024-02-28T16:40:56;16.30;;;8.38;;
76865;SDS011;66647;52.124;5.416;2024-02-28T16:43:38;13.77;;;5.38;;
76865;SDS011;66647;52.124;5.416;2024-02-28T16:46:07;16.38;;;7.53;;
76865;SDS011;66647;52.124;5.416;2024-02-28T16:48:34;20.73;;;6.35;;
76865;SDS011;66647;52.124;5.416;2024-02-28T16:51:19;17.63;;;8.18;;
76865;SDS011;66647;52.124;5.416;2024-02-28T16:53:46;14.63;;;5.40;;
76865;SDS011;66647;52.124;5.416;2024-02-28T16:56:48;17.20;;;7.70;;
76865;SDS011;66647;52.124;5.416;2024-02-28T17:01:44;17.17;;;7.30;;
76865;SDS011;66647;52.124;5.416;2024-02-28T17:07:05;16.33;;;8.05;;
76865;SDS011;66647;52.124;5.416;2024-02-28T17:09:45;17.35;;;8.80;;
76865;SDS011;66647;52.124;5.416;2024-02-28T17:12:19;18.35;;;8.45;;
76865;SDS011;66647;52.124;5.416;2024-02-28T17:14:45;15.77;;;9.15;;
76865;SDS011;66647;52.124;5.416;2024-02-28T17:17:15;16.90;;;5.88;;
76865;SDS011;66647;52.124;5.416;2024-02-28T17:29:55;13.27;;;4.85;;
76865;SDS011;66647;52.124;5.416;2024-02-28T17:32:29;16.17;;;5.53;;
76865;SDS011;66647;52.124;5.416;2024-02-28T17:40:39;12.50;;;5.50;;
76865;SDS011;66647;52.124;5.416;2024-02-28T18:11:23;14.55;;;6.75;;
76865;SDS011;66647;52.124;5.416;2024-02-28T18:14:21;13.48;;;5.20;;
76865;SDS011;66647;52.124;5.416;2024-02-28T18:16:48;15.23;;;5.72;;
76865;SDS011;66647;52.124;5.416;2024-02-28T18:19:17;16.13;;;6.78;;
76865;SDS011;66647;52.124;5.416;2024-02-28T18:21:44;16.58;;;6.78;;
76865;SDS011;66647;52.124;5.416;2024-02-28T18:24:11;16.02;;;6.63;;
76865;SDS011;66647;52.124;5.416;2024-02-28T18:26:37;14.60;;;7.22;;
76865;SDS011;66647;52.124;5.416;2024-02-28T18:29:04;15.43;;;6.15;;
76865;SDS011;66647;52.124;5.416;2024-02-28T18:31:30;14.98;;;8.00;;
76865;SDS011;66647;52.124;5.416;2024-02-28T18:33:57;14.23;;;6.15;;
76865;SDS011;66647;52.124;5.416;2024-02-28T18:36:24;13.88;;;6.38;;
76865;SDS011;66647;52.124;5.416;2024-02-28T18:38:52;16.48;;;7.68;;
76865;SDS011;66647;52.124;5.416;2024-02-28T18:41:19;13.30;;;7.15;;
76865;SDS011;66647;52.124;5.416;2024-02-28T18:43:46;13.30;;;5.40;;
76865;SDS011;66647;52.124;5.416;2024-02-28T18:46:30;14.68;;;7.72;;
76865;SDS011;66647;52.124;5.416;2024-02-28T18:51:50;17.42;;;6.90;;
76865;SDS011;66647;52.124;5.416;2024-02-28T18:54:18;18.25;;;7.65;;
76865;SDS011;66647;52.124;5.416;2024-02-28T18:59:58;14.15;;;7.10;;
76865;SDS011;66647;52.124;5.416;2024-02-28T19:15:49;12.18;;;6.28;;
76865;SDS011;66647;52.124;5.416;2024-02-28T19:18:31;13.77;;;6.55;;
76865;SDS011;66647;52.124;5.416;2024-02-28T19:21:23;13.75;;;4.97;;
76865;SDS011;66647;52.124;5.416;2024-02-28T19:23:54;13.20;;;7.15;;
76865;SDS011;66647;52.124;5.416;2024-02-28T19:26:21;12.75;;;5.07;;
76865;SDS011;66647;52.124;5.416;2024-02-28T19:31:39;17.27;;;6.75;;
76865;SDS011;66647;52.124;5.416;2024-02-28T19:34:08;11.00;;;4.95;;
76865;SDS011;66647;52.124;5.416;2024-02-28T19:36:40;13.48;;;7.43;;
76865;SDS011;66647;52.124;5.416;2024-02-28T19:42:12;10.93;;;5.50;;
76865;SDS011;66647;52.124;5.416;2024-02-28T19:47:50;10.48;;;6.32;;
76865;SDS011;66647;52.124;5.416;2024-02-28T19:50:17;12.40;;;6.10;;
76865;SDS011;66647;52.124;5.416;2024-02-28T19:52:58;10.23;;;5.70;;
76865;SDS011;66647;52.124;5.416;2024-02-28T19:58:34;10.10;;;5.40;;
76865;SDS011;66647;52.124;5.416;2024-02-28T20:23:13;9.43;;;4.43;;
76865;SDS011;66647;52.124;5.416;2024-02-28T21:29:34;10.00;;;2.67;;
76865;SDS011;66647;52.124;5.416;2024-02-28T21:32:41;10.05;;;4.43;;
76865;SDS011;66647;52.124;5.416;2024-02-28T21:35:25;8.23;;;3.95;;
76865;SDS011;66647;52.124;5.416;2024-02-28T21:37:53;8.70;;;2.83;;
76865;SDS011;66647;52.124;5.416;2024-02-28T21:40:21;8.32;;;4.63;;
76865;SDS011;66647;52.124;5.416;2024-02-28T21:43:43;10.25;;;4.43;;
76865;SDS011;66647;52.124;5.416;2024-02-28T21:46:10;8.38;;;4.78;;
76865;SDS011;66647;52.124;5.416;2024-02-28T22:02:42;7.72;;;3.17;;
76865;SDS011;66647;52.124;5.416;2024-02-28T22:09:11;8.30;;;4.32;;
76865;SDS011;66647;52.124;5.416;2024-02-28T22:11:47;9.00;;;3.65;;
76865;SDS011;66647;52.124;5.416;2024-02-28T22:14:17;8.50;;;3.75;;
76865;SDS011;66647;52.124;5.416;2024-02-28T22:16:47;8.95;;;3.75;;
76865;SDS011;66647;52.124;5.416;2024-02-28T22:24:13;9.73;;;4.72;;
76865;SDS011;66647;52.124;5.416;2024-02-28T22:26:40;13.45;;;5.70;;
76865;SDS011;66647;52.124;5.416;2024-02-28T22:33:16;11.70;;;4.13;;
76865;SDS011;66647;52.124;5.416;2024-02-28T22:36:08;9.95;;;5.07;;
76865;SDS011;66647;52.124;5.416;2024-02-28T22:38:48;10.93;;;5.43;;
76865;SDS011;66647;52.124;5.416;2024-02-28T22:46:49;9.73;;;5.13;;
76865;SDS011;66647;52.124;5.416;2024-02-28T22:56:38;10.57;;;3.80;;
76865;SDS011;66647;52.124;5.416;2024-02-28T23:01:56;9.48;;;4.80;;
76865;SDS011;66647;52.124;5.416;2024-02-28T23:07:14;10.45;;;5.53;;
76865;SDS011;66647;52.124;5.416;2024-02-28T23:09:42;10.95;;;5.03;;
76865;SDS011;66647;52.124;5.416;2024-02-28T23:12:08;10.23;;;5.13;;
76865;SDS011;66647;52.124;5.416;2024-02-28T23:17:52;11.80;;;5.07;;
76865;SDS011;66647;52.124;5.416;2024-02-28T23:22:53;11.55;;;4.65;;
76865;SDS011;66647;52.124;5.416;2024-02-28T23:25:26;12.27;;;5.72;;
76865;SDS011;66647;52.124;5.416;2024-02-28T23:34:37;10.63;;;4.03;;
76865;SDS011;66647;52.124;5.416;2024-02-28T23:37:14;8.57;;;4.50;;
76865;SDS011;66647;52.124;5.416;2024-02-28T23:39:47;10.88;;;5.72;;
76865;SDS011;66647;52.124;5.416;2024-02-28T23:42:23;11.60;;;4.72;;
76865;SDS011;66647;52.124;5.416;2024-02-28T23:47:42;9.43;;;4.85;;
76865;SDS011;66647;52.124;5.416;2024-02-28T23:53:19;10.48;;;4.93;;
76865;SDS011;66647;52.124;5.416;2024-02-28T23:55:46;10.95;;;4.97;;
76865;SDS011;66647;52.124;5.416;2024-02-28T23:58:12;10.48;;;5.72;;
